createdAt,value
2018-06-20T00:01:15.994Z,27.17
2018-06-20T00:03:45.177Z,21.43
2018-06-20T00:06:14.492Z,29.10
2018-06-20T00:08:46.632Z,22.17
2018-06-20T00:11:16.144Z,24.43
2018-06-20T00:13:45.763Z,25.37
2018-06-20T00:16:14.979Z,29.30
2018-06-20T00:18:44.453Z,21.93
2018-06-20T00:21:14.353Z,35.87
2018-06-20T00:23:43.678Z,25.50
2018-06-20T00:26:12.707Z,27.70
2018-06-20T00:28:42.112Z,28.27
2018-06-20T00:31:11.063Z,32.83
2018-06-20T00:33:40.335Z,28.70
2018-06-20T00:36:09.887Z,27.97
2018-06-20T00:38:39.033Z,30.13
2018-06-20T00:41:08.358Z,26.77
2018-06-20T00:43:37.977Z,27.27
2018-06-20T00:46:06.940Z,27.43
2018-06-20T00:48:36.582Z,26.27
2018-06-20T00:51:05.761Z,25.00
2018-06-20T00:53:35.450Z,31.93
2018-06-20T00:56:15.276Z,29.43
2018-06-20T00:58:44.746Z,33.77
2018-06-20T01:01:14.024Z,26.17
2018-06-20T01:03:42.903Z,34.77
2018-06-20T01:06:11.878Z,27.53
2018-06-20T01:08:41.598Z,26.17
2018-06-20T01:11:11.325Z,26.93
2018-06-20T01:13:40.196Z,29.83
2018-06-20T01:16:09.418Z,34.93
2018-06-20T01:18:38.603Z,30.50
2018-06-20T01:21:07.699Z,25.87
2018-06-20T01:23:36.731Z,31.70
2018-06-20T01:26:06.153Z,28.47
2018-06-20T01:28:35.018Z,29.27
2018-06-20T01:31:04.010Z,34.10
2018-06-20T01:33:32.855Z,27.03
2018-06-20T01:36:01.747Z,28.30
2018-06-20T01:38:30.959Z,35.83
2018-06-20T01:41:00.271Z,24.87
2018-06-20T01:43:29.517Z,35.20
2018-06-20T01:45:58.834Z,30.60
2018-06-20T01:48:27.985Z,30.93
2018-06-20T01:50:58.225Z,26.03
2018-06-20T01:53:27.358Z,29.30
2018-06-20T01:55:56.553Z,25.43
2018-06-20T01:58:25.772Z,30.83
2018-06-20T02:00:54.972Z,28.37
2018-06-20T02:03:23.860Z,27.63
2018-06-20T02:05:53.411Z,31.70
2018-06-20T02:08:22.591Z,30.60
2018-06-20T02:10:51.462Z,27.30
2018-06-20T02:13:20.678Z,34.40
2018-06-20T02:15:50.108Z,28.23
2018-06-20T02:18:19.119Z,31.83
2018-06-20T02:20:48.302Z,27.23
2018-06-20T02:23:17.172Z,30.40
2018-06-20T02:25:47.296Z,29.37
2018-06-20T02:28:16.820Z,24.20
2018-06-20T02:30:46.274Z,30.07
2018-06-20T02:33:15.179Z,26.17
2018-06-20T02:35:44.055Z,26.50
2018-06-20T02:38:13.299Z,25.03
2018-06-20T02:40:42.610Z,28.90
2018-06-20T02:43:11.829Z,26.90
2018-06-20T02:45:40.946Z,30.80
2018-06-20T02:48:10.381Z,29.50
2018-06-20T02:50:40.014Z,27.80
2018-06-20T02:53:09.149Z,27.63
2018-06-20T02:55:38.649Z,32.43
2018-06-20T02:58:07.518Z,23.77
2018-06-20T03:00:36.398Z,24.27
2018-06-20T03:03:05.294Z,34.30
2018-06-20T03:05:34.239Z,31.83
2018-06-20T03:08:03.673Z,27.17
2018-06-20T03:10:32.532Z,25.57
2018-06-20T03:13:01.700Z,29.20
2018-06-20T03:15:31.087Z,30.97
2018-06-20T03:18:00.317Z,27.77
2018-06-20T03:20:29.214Z,31.00
2018-06-20T03:22:58.415Z,38.40
2018-06-20T03:25:28.127Z,30.23
2018-06-20T03:27:57.261Z,29.40
2018-06-20T03:30:26.138Z,36.17
2018-06-20T03:32:55.310Z,29.80
2018-06-20T03:35:24.506Z,38.40
2018-06-20T03:37:53.655Z,37.00
2018-06-20T03:40:23.436Z,40.23
2018-06-20T03:42:52.284Z,38.87
2018-06-20T03:45:21.464Z,30.90
2018-06-20T03:47:50.930Z,39.17
2018-06-20T03:50:20.457Z,32.50
2018-06-20T03:52:49.321Z,34.27
2018-06-20T03:55:18.464Z,46.40
2018-06-20T03:57:47.713Z,31.40
2018-06-20T04:00:17.118Z,30.13
2018-06-20T04:02:45.995Z,41.70
2018-06-20T04:05:15.409Z,37.90
2018-06-20T04:07:44.493Z,35.50
2018-06-20T04:10:13.721Z,34.33
2018-06-20T04:12:42.848Z,35.60
2018-06-20T04:15:12.013Z,36.37
2018-06-20T04:17:41.151Z,49.53
2018-06-20T04:20:10.440Z,41.50
2018-06-20T04:22:39.300Z,45.40
2018-06-20T04:25:08.201Z,47.03
2018-06-20T04:27:37.361Z,36.77
2018-06-20T04:30:06.223Z,40.00
2018-06-20T04:32:35.362Z,45.13
2018-06-20T04:35:04.239Z,41.57
2018-06-20T04:37:33.066Z,37.80
2018-06-20T04:40:01.959Z,39.80
2018-06-20T04:42:30.855Z,42.23
2018-06-20T04:44:59.717Z,39.53
2018-06-20T04:47:28.616Z,36.23
2018-06-20T04:49:57.453Z,61.40
2018-06-20T04:52:27.380Z,43.17
2018-06-20T04:54:56.589Z,49.00
2018-06-20T04:57:25.759Z,47.50
2018-06-20T04:59:54.607Z,45.87
2018-06-20T05:02:23.684Z,50.53
2018-06-20T05:04:53.178Z,57.80
2018-06-20T05:07:22.666Z,51.17
2018-06-20T05:09:51.918Z,50.30
2018-06-20T05:12:21.361Z,55.50
2018-06-20T05:14:50.461Z,62.93
2018-06-20T05:17:19.377Z,51.40
2018-06-20T05:19:48.253Z,53.13
2018-06-20T05:22:17.419Z,47.07
2018-06-20T05:24:46.546Z,66.60
2018-06-20T05:27:15.437Z,51.03
2018-06-20T05:29:44.596Z,52.27
2018-06-20T05:32:13.786Z,48.87
2018-06-20T05:34:43.006Z,44.90
2018-06-20T05:37:12.255Z,47.57
2018-06-20T05:39:41.694Z,46.43
2018-06-20T05:42:10.558Z,51.90
2018-06-20T05:44:39.899Z,45.40
2018-06-20T05:47:09.596Z,50.70
2018-06-20T05:49:38.419Z,43.30
2018-06-20T05:52:07.657Z,48.90
2018-06-20T05:54:37.570Z,54.87
2018-06-20T05:57:06.738Z,47.77
2018-06-20T05:59:35.612Z,45.03
2018-06-20T06:02:04.585Z,46.60
2018-06-20T06:04:33.496Z,45.80
2018-06-20T06:07:02.354Z,49.80
2018-06-20T06:09:31.706Z,46.27
2018-06-20T06:12:00.609Z,46.37
2018-06-20T06:14:29.537Z,45.13
2018-06-20T06:16:58.766Z,46.37
2018-06-20T06:19:27.657Z,43.03
2018-06-20T06:21:56.950Z,38.73
2018-06-20T06:24:26.677Z,37.80
2018-06-20T06:26:56.474Z,40.23
2018-06-20T06:29:25.513Z,42.00
2018-06-20T06:31:54.529Z,38.10
2018-06-20T06:34:23.443Z,37.87
2018-06-20T06:36:52.360Z,36.37
2018-06-20T06:39:21.305Z,32.27
2018-06-20T06:41:50.579Z,34.00
2018-06-20T06:44:19.696Z,33.40
2018-06-20T06:46:49.251Z,32.50
2018-06-20T06:49:18.563Z,29.73
2018-06-20T06:51:47.977Z,34.30
2018-06-20T06:54:17.324Z,41.93
2018-06-20T06:56:46.482Z,29.90
2018-06-20T06:59:15.353Z,35.33
2018-06-20T07:01:44.178Z,29.30
2018-06-20T07:04:13.589Z,26.87
2018-06-20T07:06:43.131Z,29.77
2018-06-20T07:09:12.532Z,25.50
2018-06-20T07:11:41.727Z,30.17
2018-06-20T07:14:10.954Z,31.23
2018-06-20T07:16:39.818Z,24.00
2018-06-20T07:19:08.634Z,25.90
2018-06-20T07:21:37.969Z,27.23
2018-06-20T07:24:07.177Z,27.23
2018-06-20T07:26:36.357Z,23.27
2018-06-20T07:29:05.590Z,21.80
2018-06-20T07:31:34.756Z,24.60
2018-06-20T07:34:04.019Z,23.60
2018-06-20T07:36:33.162Z,18.40
2018-06-20T07:39:02.101Z,15.03
2018-06-20T07:41:31.608Z,14.23
2018-06-20T07:44:01.225Z,17.40
2018-06-20T07:46:30.446Z,14.57
2018-06-20T07:48:59.276Z,19.07
2018-06-20T07:51:28.446Z,13.50
2018-06-20T07:53:57.595Z,14.30
2018-06-20T07:56:27.044Z,24.80
2018-06-20T07:58:57.211Z,16.07
2018-06-20T08:01:42.601Z,14.43
2018-06-20T08:04:17.035Z,11.90
2018-06-20T08:06:51.445Z,12.07
2018-06-20T08:09:25.675Z,11.00
2018-06-20T08:12:00.207Z,9.27
2018-06-20T08:14:34.755Z,11.60
2018-06-20T08:17:10.853Z,10.23
2018-06-20T08:19:45.539Z,9.03
2018-06-20T08:22:18.506Z,12.90
2018-06-20T08:25:03.460Z,7.10
2018-06-20T08:27:33.458Z,7.13
2018-06-20T08:30:03.877Z,7.30
2018-06-20T08:32:33.842Z,8.53
2018-06-20T08:35:03.316Z,6.23
2018-06-20T08:37:32.579Z,8.10
2018-06-20T08:40:01.921Z,6.43
2018-06-20T08:42:31.613Z,7.83
2018-06-20T08:45:00.792Z,10.13
2018-06-20T08:47:30.056Z,14.53
2018-06-20T08:49:59.162Z,6.73
2018-06-20T08:52:28.640Z,9.13
2018-06-20T08:54:57.414Z,13.67
2018-06-20T08:57:26.491Z,14.50
2018-06-20T08:59:55.947Z,8.57
2018-06-20T09:02:25.037Z,10.33
2018-06-20T09:04:59.555Z,10.77
2018-06-20T09:07:34.119Z,12.13
2018-06-20T09:10:07.984Z,13.47
2018-06-20T09:12:41.996Z,15.40
2018-06-20T09:15:16.306Z,14.47
2018-06-20T09:17:50.240Z,17.10
2018-06-20T09:20:19.529Z,14.73
2018-06-20T09:22:48.946Z,15.47
2018-06-20T09:25:18.029Z,15.43
2018-06-20T09:27:47.147Z,15.20
2018-06-20T09:30:16.767Z,14.20
2018-06-20T09:32:46.364Z,14.37
2018-06-20T09:35:15.526Z,15.47
2018-06-20T09:37:45.283Z,16.60
2018-06-20T09:40:14.745Z,14.00
2018-06-20T09:42:43.544Z,12.80
2018-06-20T09:45:12.418Z,13.70
2018-06-20T09:47:41.532Z,19.80
2018-06-20T09:50:15.848Z,13.67
2018-06-20T09:52:45.030Z,14.00
2018-06-20T09:55:13.892Z,15.70
2018-06-20T09:57:42.986Z,14.70
2018-06-20T10:00:17.106Z,12.80
2018-06-20T10:02:51.393Z,12.60
2018-06-20T10:05:25.768Z,12.13
2018-06-20T10:08:59.614Z,14.23
2018-06-20T10:11:33.450Z,17.43
2018-06-20T10:14:03.477Z,13.20
2018-06-20T10:16:32.414Z,12.57
2018-06-20T10:19:02.018Z,12.00
2018-06-20T10:21:31.243Z,13.47
2018-06-20T10:24:00.376Z,10.23
2018-06-20T10:26:29.581Z,10.47
2018-06-20T10:28:58.710Z,15.53
2018-06-20T10:31:27.828Z,11.10
2018-06-20T10:33:57.533Z,16.33
2018-06-20T10:36:26.714Z,14.43
2018-06-20T10:38:56.243Z,13.07
2018-06-20T10:41:25.095Z,14.00
2018-06-20T10:43:53.972Z,12.20
2018-06-20T10:46:27.921Z,10.80
2018-06-20T10:48:57.952Z,9.43
2018-06-20T10:51:27.401Z,12.47
2018-06-20T10:54:00.591Z,10.70
2018-06-20T10:56:34.962Z,9.67
2018-06-20T10:59:09.144Z,8.83
2018-06-20T11:02:42.999Z,9.00
2018-06-20T11:05:17.182Z,9.10
2018-06-20T11:07:51.116Z,9.63
2018-06-20T11:10:25.047Z,10.23
2018-06-20T11:12:55.492Z,8.53
2018-06-20T11:15:24.860Z,7.63
2018-06-20T11:17:53.685Z,8.47
2018-06-20T11:20:27.898Z,9.57
2018-06-20T11:22:57.084Z,9.33
2018-06-20T11:25:26.300Z,8.23
2018-06-20T11:27:55.939Z,7.80
2018-06-20T11:30:25.381Z,8.43
2018-06-20T11:32:54.632Z,8.50
2018-06-20T11:35:23.516Z,7.80
2018-06-20T11:37:53.360Z,8.73
2018-06-20T11:40:22.189Z,7.40
2018-06-20T11:42:51.338Z,9.30
2018-06-20T11:45:21.048Z,8.23
2018-06-20T11:47:50.474Z,8.33
2018-06-20T11:50:19.656Z,8.40
2018-06-20T11:52:54.040Z,7.47
2018-06-20T11:55:28.555Z,11.43
2018-06-20T11:58:02.630Z,8.47
2018-06-20T12:00:36.742Z,11.03
2018-06-20T12:03:11.448Z,9.10
2018-06-20T12:05:45.268Z,8.43
2018-06-20T12:08:19.477Z,8.17
2018-06-20T12:10:53.631Z,10.83
2018-06-20T12:13:27.752Z,9.23
2018-06-20T12:16:01.704Z,11.37
2018-06-20T12:18:35.737Z,9.93
2018-06-20T12:21:10.077Z,11.90
2018-06-20T12:23:44.391Z,9.27
2018-06-20T12:26:18.602Z,9.70
2018-06-20T12:28:52.643Z,10.60
2018-06-20T12:31:26.525Z,9.43
2018-06-20T12:34:01.129Z,9.13
2018-06-20T12:36:35.109Z,8.17
2018-06-20T12:39:03.088Z,8.73
2018-06-20T12:41:37.947Z,9.13
2018-06-20T12:44:30.521Z,9.83
2018-06-20T12:47:02.047Z,9.93
2018-06-20T12:49:35.004Z,8.37
2018-06-20T12:52:03.928Z,8.33
2018-06-20T12:54:33.517Z,8.17
2018-06-20T12:57:02.690Z,7.90
2018-06-20T12:59:31.803Z,9.60
2018-06-20T13:02:00.911Z,7.50
2018-06-20T13:04:29.639Z,35.97
2018-06-20T13:06:58.393Z,8.47
2018-06-20T13:09:27.459Z,6.57
2018-06-20T13:11:56.551Z,9.33
2018-06-20T13:14:25.697Z,6.57
2018-06-20T13:16:54.996Z,7.10
2018-06-20T13:19:23.742Z,9.13
2018-06-20T13:21:53.015Z,7.10
2018-06-20T13:24:22.164Z,8.10
2018-06-20T13:26:51.047Z,7.50
2018-06-20T13:29:19.767Z,8.00
2018-06-20T13:31:53.959Z,9.50
2018-06-20T13:34:28.463Z,10.60
2018-06-20T13:37:02.529Z,8.53
2018-06-20T13:39:36.678Z,9.43
2018-06-20T13:42:08.694Z,11.67
2018-06-20T13:44:37.771Z,7.30
2018-06-20T13:47:11.855Z,15.80
2018-06-20T13:49:41.083Z,10.33
2018-06-20T13:52:10.229Z,10.10
2018-06-20T13:54:39.419Z,10.87
2018-06-20T13:57:09.004Z,11.73
2018-06-20T13:59:37.775Z,12.40
2018-06-20T14:02:06.681Z,13.23
2018-06-20T14:04:35.776Z,14.63
2018-06-20T14:07:04.902Z,14.07
2018-06-20T14:09:34.091Z,13.10
2018-06-20T14:12:03.188Z,15.67
2018-06-20T14:14:32.804Z,17.10
2018-06-20T14:17:02.344Z,13.20
2018-06-20T14:19:36.378Z,18.00
2018-06-20T14:22:05.764Z,14.43
2018-06-20T14:24:34.813Z,14.20
2018-06-20T14:27:03.857Z,16.53
2018-06-20T14:29:37.652Z,19.33
2018-06-20T14:32:11.894Z,22.00
2018-06-20T14:34:46.171Z,23.33
2018-06-20T14:38:19.079Z,20.50
2018-06-20T14:40:53.463Z,24.60
2018-06-20T14:43:27.687Z,23.23
2018-06-20T14:46:01.609Z,20.40
2018-06-20T14:48:31.174Z,23.03
2018-06-20T14:51:00.762Z,24.60
2018-06-20T14:53:29.608Z,20.80
2018-06-20T14:55:58.432Z,22.53
2018-06-20T14:58:27.655Z,27.40
2018-06-20T15:00:57.116Z,28.80
2018-06-20T15:03:25.993Z,24.77
2018-06-20T15:05:55.008Z,20.00
2018-06-20T15:08:24.186Z,17.63
2018-06-20T15:10:53.783Z,26.33
2018-06-20T15:13:23.106Z,18.27
2018-06-20T15:15:52.295Z,18.40
2018-06-20T15:18:21.254Z,15.93
2018-06-20T15:20:50.097Z,19.50
2018-06-20T15:23:19.414Z,19.97
2018-06-20T15:25:53.537Z,15.87
2018-06-20T15:28:27.847Z,17.40
2018-06-20T15:31:05.018Z,18.97
2018-06-20T15:33:39.258Z,21.00
2018-06-20T15:36:13.707Z,20.27
2018-06-20T15:38:42.968Z,19.43
2018-06-20T15:41:12.523Z,20.50
2018-06-20T15:43:42.395Z,18.57
2018-06-20T15:46:12.631Z,19.50
2018-06-20T15:48:42.716Z,24.23
2018-06-20T15:51:12.170Z,18.67
2018-06-20T15:53:41.163Z,19.60
2018-06-20T15:56:10.605Z,20.57
2018-06-20T15:58:39.597Z,32.90
2018-06-20T16:01:08.727Z,19.50
2018-06-20T16:03:38.160Z,16.90
2018-06-20T16:06:07.067Z,20.83
2018-06-20T16:08:42.067Z,16.30
2018-06-20T16:11:11.005Z,19.30
2018-06-20T16:13:40.532Z,23.83
2018-06-20T16:16:11.441Z,18.97
2018-06-20T16:18:44.985Z,22.23
2018-06-20T16:21:19.293Z,21.70
2018-06-20T16:23:53.634Z,19.20
2018-06-20T16:26:27.553Z,28.03
2018-06-20T16:29:03.509Z,20.37
2018-06-20T16:31:32.804Z,25.50
2018-06-20T16:34:02.561Z,25.43
2018-06-20T16:36:31.764Z,21.43
2018-06-20T16:39:00.694Z,20.80
2018-06-20T16:41:29.594Z,23.60
2018-06-20T16:43:58.485Z,34.63
2018-06-20T16:46:27.728Z,22.27
2018-06-20T16:48:57.304Z,22.63
2018-06-20T16:51:26.654Z,23.63
2018-06-20T16:53:55.523Z,26.50
2018-06-20T16:56:24.404Z,27.43
2018-06-20T16:58:53.989Z,21.90
2018-06-20T17:01:28.011Z,27.57
2018-06-20T17:03:57.148Z,23.07
2018-06-20T17:06:26.591Z,14.87
2018-06-20T17:08:55.403Z,14.67
2018-06-20T17:11:25.272Z,18.60
2018-06-20T17:13:59.290Z,21.20
2018-06-20T17:16:33.603Z,16.30
2018-06-20T17:19:07.638Z,20.50
2018-06-20T17:21:42.092Z,17.97
2018-06-20T17:24:16.280Z,16.03
2018-06-20T17:26:45.485Z,18.40
2018-06-20T17:29:15.025Z,14.63
2018-06-20T17:31:45.238Z,13.10
2018-06-20T17:34:14.815Z,15.90
2018-06-20T17:36:44.301Z,13.30
2018-06-20T17:39:14.565Z,10.10
2018-06-20T17:41:43.629Z,15.00
2018-06-20T17:44:13.050Z,11.30
2018-06-20T17:46:42.178Z,10.43
2018-06-20T17:49:11.692Z,10.70
2018-06-20T17:51:41.570Z,15.93
2018-06-20T17:54:11.807Z,12.40
2018-06-20T17:56:41.244Z,10.80
2018-06-20T17:59:10.770Z,12.47
2018-06-20T18:01:40.380Z,12.83
2018-06-20T18:04:10.020Z,13.23
2018-06-20T18:06:44.726Z,15.30
2018-06-20T18:09:19.399Z,12.73
2018-06-20T18:11:53.477Z,15.63
2018-06-20T18:14:27.958Z,19.07
2018-06-20T18:16:59.720Z,15.50
2018-06-20T18:19:30.070Z,17.13
2018-06-20T18:21:59.334Z,19.80
2018-06-20T18:24:28.529Z,19.17
2018-06-20T18:26:58.219Z,15.60
2018-06-20T18:29:27.949Z,18.30
2018-06-20T18:31:57.485Z,18.07
2018-06-20T18:34:26.935Z,24.47
2018-06-20T18:36:56.375Z,23.80
2018-06-20T18:39:25.858Z,28.63
2018-06-20T18:41:55.166Z,26.63
2018-06-20T18:44:24.223Z,25.53
2018-06-20T18:46:54.046Z,24.70
2018-06-20T18:49:23.618Z,26.00
2018-06-20T18:51:58.384Z,28.57
2018-06-20T18:54:27.687Z,24.03
2018-06-20T18:56:56.796Z,24.60
2018-06-20T18:59:31.155Z,27.17
2018-06-20T19:02:05.353Z,25.10
2018-06-20T19:04:39.618Z,31.40
2018-06-20T19:07:13.683Z,23.53
2018-06-20T19:09:42.975Z,24.23
2018-06-20T19:12:12.562Z,26.07
2018-06-20T19:14:41.745Z,29.10
2018-06-20T19:17:10.913Z,22.63
2018-06-20T19:19:40.400Z,32.90
2018-06-20T19:22:09.578Z,27.70
2018-06-20T19:24:38.883Z,33.10
2018-06-20T19:27:08.323Z,23.67
2018-06-20T19:29:37.971Z,30.07
2018-06-20T19:32:06.880Z,42.40
2018-06-20T19:34:36.413Z,30.83
2018-06-20T19:37:05.379Z,22.83
2018-06-20T19:39:39.771Z,28.10
2018-06-20T19:42:09.680Z,30.30
2018-06-20T19:44:39.138Z,21.70
2018-06-20T19:47:08.189Z,26.90
2018-06-20T19:49:37.330Z,25.37
2018-06-20T19:52:06.571Z,20.90
2018-06-20T19:54:36.024Z,28.47
2018-06-20T19:57:05.572Z,24.47
2018-06-20T19:59:35.340Z,22.07
2018-06-20T20:02:04.512Z,25.63
2018-06-20T20:04:33.945Z,28.67
2018-06-20T20:07:03.129Z,25.90
2018-06-20T20:09:32.668Z,25.90
2018-06-20T20:12:02.372Z,29.90
2018-06-20T20:14:32.228Z,22.20
2018-06-20T20:17:01.276Z,24.07
2018-06-20T20:19:30.945Z,22.33
2018-06-20T20:22:00.076Z,22.60
2018-06-20T20:24:29.749Z,21.10
2018-06-20T20:26:59.072Z,15.77
2018-06-20T20:29:28.656Z,16.40
2018-06-20T20:31:57.918Z,16.13
2018-06-20T20:34:27.164Z,15.50
2018-06-20T20:36:56.946Z,15.87
2018-06-20T20:39:26.875Z,19.03
2018-06-20T20:41:55.996Z,14.93
2018-06-20T20:44:25.635Z,13.97
2018-06-20T20:46:55.189Z,16.63
2018-06-20T20:49:24.368Z,15.03
2018-06-20T20:51:53.565Z,15.43
2018-06-20T20:54:22.595Z,20.60
2018-06-20T20:56:52.636Z,17.17
2018-06-20T20:59:21.945Z,22.40
2018-06-20T21:01:51.591Z,14.70
2018-06-20T21:04:21.116Z,15.57
2018-06-20T21:06:50.113Z,11.37
2018-06-20T21:09:19.165Z,11.50
2018-06-20T21:11:48.766Z,10.40
2018-06-20T21:14:18.079Z,11.73
2018-06-20T21:16:47.261Z,13.27
2018-06-20T21:19:16.399Z,10.50
2018-06-20T21:21:45.807Z,12.93
2018-06-20T21:24:15.464Z,12.60
2018-06-20T21:26:44.554Z,7.63
2018-06-20T21:29:14.228Z,8.13
2018-06-20T21:31:45.351Z,6.87
2018-06-20T21:34:14.989Z,7.93
2018-06-20T21:36:44.547Z,8.30
2018-06-20T21:39:13.925Z,8.93
2018-06-20T21:41:43.258Z,22.47
2018-06-20T21:44:12.445Z,10.97
2018-06-20T21:46:41.455Z,8.20
2018-06-20T21:49:10.955Z,9.13
2018-06-20T21:51:40.483Z,8.93
2018-06-20T21:54:09.713Z,6.33
2018-06-20T21:56:38.913Z,9.93
2018-06-20T21:59:08.445Z,5.00
2018-06-20T22:01:37.647Z,15.87
2018-06-20T22:04:06.682Z,14.47
2018-06-20T22:06:36.433Z,9.30
2018-06-20T22:09:09.258Z,6.43
2018-06-20T22:11:39.120Z,11.33
2018-06-20T22:14:09.490Z,8.83
2018-06-20T22:16:39.597Z,11.00
2018-06-20T22:19:08.761Z,10.93
2018-06-20T22:21:37.944Z,8.70
2018-06-20T22:24:06.896Z,11.20
2018-06-20T22:26:35.707Z,7.10
2018-06-20T22:29:05.472Z,9.30
2018-06-20T22:31:35.036Z,17.23
2018-06-20T22:34:04.112Z,7.17
2018-06-20T22:36:33.268Z,6.93
2018-06-20T22:39:02.169Z,9.47
2018-06-20T22:41:32.178Z,10.90
2018-06-20T22:44:01.738Z,10.13
2018-06-20T22:46:30.877Z,9.30
2018-06-20T22:49:00.543Z,10.70
2018-06-20T22:51:29.493Z,7.73
2018-06-20T22:53:59.001Z,14.30
2018-06-20T22:56:28.022Z,12.07
2018-06-20T22:58:59.528Z,17.07
2018-06-20T23:01:28.736Z,7.60
2018-06-20T23:03:59.126Z,11.50
2018-06-20T23:06:28.510Z,11.03
2018-06-20T23:08:58.261Z,11.67
2018-06-20T23:11:28.546Z,9.13
2018-06-20T23:13:58.396Z,10.23
2018-06-20T23:16:27.960Z,12.20
2018-06-20T23:18:58.493Z,8.40
2018-06-20T23:21:28.268Z,9.30
2018-06-20T23:23:57.159Z,13.00
2018-06-20T23:26:27.182Z,6.43
2018-06-20T23:28:56.855Z,9.40
2018-06-20T23:31:26.371Z,10.50
2018-06-20T23:33:55.795Z,12.50
2018-06-20T23:36:25.387Z,8.33
2018-06-20T23:38:54.767Z,13.70
2018-06-20T23:41:23.782Z,11.43
2018-06-20T23:43:52.673Z,9.40
2018-06-20T23:46:21.620Z,7.97
2018-06-20T23:48:50.573Z,6.50
2018-06-20T23:51:19.795Z,10.93
2018-06-20T23:53:48.698Z,9.83
2018-06-20T23:56:17.930Z,10.50
2018-06-20T23:58:47.530Z,7.67
